Time;durP1;ratioP1;P1;durP2;ratioP2;P2;SDS_P1;SDS_P2;PMS_P1;PMS_P2;Temp;Humidity;BMP_temperature;BMP_pressure;BME280_temperature;BME280_humidity;BME280_pressure;Samples;Min_cycle;Max_cycle;Signal;HPM_P1;HPM_P2
2020/12/16 00:02:14;;;;;;;28.67;13.77;;;;;;;3.30;88.14;100873.91;4978102;28;20045;-79
2020/12/16 00:04:39;;;;;;;27.60;14.27;;;;;;;3.49;88.12;100899.91;4978345;28;20056;-76
2020/12/16 00:07:05;;;;;;;26.60;13.30;;;;;;;3.65;87.54;100907.44;4978424;28;20049;-76
2020/12/16 00:09:30;;;;;;;28.08;14.50;;;;;;;3.42;87.50;100863.09;4962304;28;20395;-77
2020/12/16 00:11:56;;;;;;;29.38;13.82;;;;;;;3.62;87.68;100914.56;4977883;28;20065;-77
2020/12/16 00:14:21;;;;;;;31.45;14.60;;;;;;;3.47;88.10;100912.22;4995721;28;20038;-76
2020/12/16 00:16:46;;;;;;;29.13;14.43;;;;;;;3.61;87.84;100918.09;4995376;28;20039;-76
2020/12/16 00:19:12;;;;;;;29.38;14.18;;;;;;;3.65;87.65;100910.06;4961762;28;20046;-76
2020/12/16 00:21:37;;;;;;;27.40;13.38;;;;;;;3.66;87.52;100903.91;4994976;28;20042;-77
2020/12/16 00:24:02;;;;;;;27.02;13.40;;;;;;;3.67;87.50;100904.78;4978085;28;20061;-77
2020/12/16 00:26:28;;;;;;;26.15;13.23;;;;;;;3.56;87.51;100897.09;4995266;28;20030;-76
2020/12/16 00:28:53;;;;;;;28.27;12.77;;;;;;;3.50;87.53;100891.09;4977619;28;20145;-81
2020/12/16 00:31:19;;;;;;;25.73;13.43;;;;;;;3.47;87.53;100891.13;4977956;28;20133;-82
2020/12/16 00:33:44;;;;;;;28.45;13.18;;;;;;;3.40;87.79;100880.72;4977719;28;20071;-81
2020/12/16 00:36:09;;;;;;;27.10;13.00;;;;;;;3.60;87.89;100914.59;4977851;28;20042;-82
2020/12/16 00:38:35;;;;;;;28.33;13.02;;;;;;;3.29;87.80;100871.31;4994838;28;20030;-81
2020/12/16 00:41:00;;;;;;;27.20;12.80;;;;;;;3.25;87.47;100859.06;4977712;28;20034;-81
2020/12/16 00:43:26;;;;;;;31.33;14.00;;;;;;;3.50;88.04;100928.88;4977724;28;20515;-84
2020/12/16 00:45:51;;;;;;;24.48;12.43;;;;;;;3.60;87.81;100933.06;4994890;28;20070;-84
2020/12/16 00:48:16;;;;;;;27.92;13.50;;;;;;;3.26;87.99;100882.75;4995375;28;20117;-83
2020/12/16 00:50:42;;;;;;;26.23;12.70;;;;;;;3.52;87.86;100921.81;4994666;28;20042;-84
2020/12/16 00:53:07;;;;;;;25.73;12.18;;;;;;;3.61;87.55;100918.09;4994771;28;20543;-83
2020/12/16 00:55:32;;;;;;;25.67;12.38;;;;;;;3.62;87.89;100927.75;4977389;28;20055;-84
2020/12/16 00:57:58;;;;;;;26.75;12.82;;;;;;;3.55;87.49;100911.19;4977254;28;20034;-83
2020/12/16 01:00:24;;;;;;;24.42;12.70;;;;;;;3.54;87.34;100905.94;4977592;28;20034;-74
2020/12/16 01:02:49;;;;;;;24.55;11.57;;;;;;;3.67;87.16;100925.91;4960979;28;20472;-79
2020/12/16 01:05:15;;;;;;;25.80;12.35;;;;;;;3.68;87.30;100923.22;4977401;28;20034;-78
2020/12/16 01:07:41;;;;;;;27.80;12.48;;;;;;;3.67;87.03;100929.41;4977021;28;20037;-79
2020/12/16 01:10:11;;;;;;;25.80;11.90;;;;;;;3.56;86.79;100914.69;4994624;28;20022;-79
2020/12/16 01:12:41;;;;;;;24.90;11.57;;;;;;;3.70;86.77;100931.97;4993598;28;20030;-77
2020/12/16 01:15:10;;;;;;;22.90;11.70;;;;;;;3.51;87.14;100900.75;4977192;28;20543;-80
2020/12/16 01:17:39;;;;;;;24.77;11.80;;;;;;;3.70;86.96;100920.56;4994664;28;20161;-79
2020/12/16 01:20:07;;;;;;;25.00;11.57;;;;;;;3.71;86.69;100912.59;4994526;28;20092;-81
2020/12/16 01:22:40;;;;;;;27.17;12.43;;;;;;;3.68;86.96;100922.38;4994267;28;20471;-80
2020/12/16 01:25:06;;;;;;;27.58;12.65;;;;;;;3.70;86.79;100921.41;4994328;28;20124;-79
2020/12/16 01:27:31;;;;;;;22.05;11.45;;;;;;;3.49;87.06;100910.47;4994542;28;20050;-79
2020/12/16 01:29:56;;;;;;;22.85;11.15;;;;;;;3.59;87.59;100922.56;4976633;28;20876;-79
2020/12/16 01:32:22;;;;;;;25.88;12.55;;;;;;;3.52;87.41;100910.38;4976955;28;20057;-82
2020/12/16 01:34:47;;;;;;;24.35;12.00;;;;;;;3.37;87.14;100877.25;4993877;28;20479;-82
2020/12/16 01:37:12;;;;;;;21.13;10.98;;;;;;;3.57;87.49;100921.69;4994571;28;20038;-79
2020/12/16 01:39:38;;;;;;;23.38;11.32;;;;;;;3.54;87.38;100909.44;4976507;28;20129;-78
2020/12/16 01:42:03;;;;;;;23.30;11.13;;;;;;;3.45;87.39;100886.75;4976940;28;20030;-77
2020/12/16 01:44:30;;;;;;;25.35;11.95;;;;;;;3.42;87.99;100907.94;4994451;28;20044;-78
2020/12/16 01:46:58;;;;;;;24.80;11.25;;;;;;;3.52;87.59;100915.66;4993809;28;20081;-80
2020/12/16 01:49:25;;;;;;;22.48;11.05;;;;;;;3.50;88.03;100901.63;4977235;28;20042;-80
2020/12/16 01:51:53;;;;;;;24.23;11.75;;;;;;;3.48;87.47;100899.03;4976411;28;20041;-80
2020/12/16 01:54:21;;;;;;;23.25;11.18;;;;;;;3.31;88.23;100875.66;4976185;28;20073;-79
2020/12/16 01:56:50;;;;;;;25.42;11.40;;;;;;;3.47;88.22;100902.53;4976580;28;20030;-83
2020/12/16 01:59:17;;;;;;;23.08;11.40;;;;;;;3.41;88.61;100893.00;4976655;28;20113;-83
2020/12/16 02:01:45;;;;;;;24.80;11.95;;;;;;;3.51;88.45;100898.09;4976281;28;20559;-81
2020/12/16 02:04:12;;;;;;;24.15;11.82;;;;;;;3.40;89.28;100906.25;4993823;28;20030;-77
2020/12/16 02:06:41;;;;;;;25.77;12.75;;;;;;;3.41;89.06;100898.28;4993830;28;20030;-77
2020/12/16 02:09:08;;;;;;;25.73;12.02;;;;;;;3.36;89.42;100889.59;4993747;28;20033;-78
2020/12/16 02:11:35;;;;;;;24.55;11.57;;;;;;;3.45;89.09;100896.44;4993911;28;20113;-79
2020/12/16 02:14:05;;;;;;;23.60;11.20;;;;;;;3.44;89.35;100908.75;4976182;28;20306;-78
2020/12/16 02:16:31;;;;;;;26.48;12.45;;;;;;;3.25;89.74;100862.56;4976483;28;20034;-79
2020/12/16 02:18:56;;;;;;;24.98;11.80;;;;;;;3.41;89.64;100887.75;4993529;28;20461;-77
2020/12/16 02:21:22;;;;;;;23.52;11.13;;;;;;;3.50;89.76;100904.28;4976045;28;20038;-78
2020/12/16 02:23:47;;;;;;;28.73;11.95;;;;;;;3.40;90.33;100903.59;4994172;28;20034;-77
2020/12/16 02:26:14;;;;;;;24.85;11.07;;;;;;;3.43;90.22;100900.88;4980510;28;20407;-79
2020/12/16 02:28:41;;;;;;;25.83;12.65;;;;;;;3.40;90.58;100888.66;4998026;28;20038;-77
2020/12/16 02:31:07;;;;;;;28.20;12.52;;;;;;;3.27;90.65;100860.78;4979943;28;20045;-78
2020/12/16 02:33:32;;;;;;;27.05;12.10;;;;;;;3.38;91.05;100889.59;4997416;28;20391;-78
2020/12/16 02:35:58;;;;;;;27.33;12.57;;;;;;;3.30;91.19;100889.72;4997011;28;20034;-79
2020/12/16 02:38:23;;;;;;;28.25;12.65;;;;;;;3.33;91.66;100887.03;4997619;28;20035;-79
2020/12/16 02:40:49;;;;;;;28.45;13.85;;;;;;;3.24;92.58;100879.28;4997271;28;20427;-78
2020/12/16 02:43:14;;;;;;;28.00;13.00;;;;;;;3.17;92.05;100846.03;4997397;28;20404;-77
2020/12/16 02:45:39;;;;;;;31.00;13.10;;;;;;;3.34;92.27;100886.13;4997268;28;20069;-78
2020/12/16 02:48:05;;;;;;;25.40;12.57;;;;;;;3.32;91.87;100872.09;4996825;28;20038;-78
2020/12/16 02:50:30;;;;;;;28.02;13.10;;;;;;;3.33;92.09;100884.38;4997288;28;20372;-78
2020/12/16 02:52:56;;;;;;;30.70;12.98;;;;;;;3.24;92.39;100876.66;4979216;28;20041;-78
2020/12/16 02:55:21;;;;;;;28.92;13.43;;;;;;;3.04;93.14;100849.84;4963492;28;20078;-78
2020/12/16 02:57:46;;;;;;;29.58;13.55;;;;;;;3.32;93.26;100898.47;4979519;28;20031;-78
2020/12/16 03:00:12;;;;;;;30.25;13.18;;;;;;;3.32;92.91;100885.28;4997011;28;20092;-78
2020/12/16 03:02:37;;;;;;;31.17;13.55;;;;;;;3.36;92.99;100894.00;4979585;28;20030;-78
2020/12/16 03:05:03;;;;;;;32.25;14.25;;;;;;;3.25;92.70;100878.41;4979070;28;20149;-78
2020/12/16 03:07:28;;;;;;;30.25;13.98;;;;;;;3.36;93.01;100900.13;4979567;28;20066;-77
2020/12/16 03:09:54;;;;;;;34.20;14.48;;;;;;;3.34;92.99;100904.56;4962916;28;20049;-77
2020/12/16 03:12:19;;;;;;;35.40;15.40;;;;;;;3.04;93.59;100871.78;4963178;28;20129;-77
2020/12/16 03:14:45;;;;;;;31.23;13.70;;;;;;;3.20;93.20;100879.41;4996615;28;20034;-79
2020/12/16 03:17:10;;;;;;;34.60;14.85;;;;;;;3.39;93.00;100918.56;4996607;28;20031;-76
2020/12/16 03:19:35;;;;;;;31.13;14.05;;;;;;;3.49;92.85;100905.19;4979190;28;20460;-77
2020/12/16 03:22:01;;;;;;;31.10;14.18;;;;;;;3.43;92.60;100912.31;4978985;28;20048;-77
2020/12/16 03:24:26;;;;;;;29.90;14.43;;;;;;;3.44;92.98;100900.84;4963422;28;20392;-77
2020/12/16 03:26:51;;;;;;;34.03;14.18;;;;;;;3.43;92.81;100904.41;4978857;28;20042;-77
2020/12/16 03:29:17;;;;;;;31.52;14.88;;;;;;;3.55;92.13;100902.41;4963214;28;20446;-80
2020/12/16 03:31:42;;;;;;;30.00;14.70;;;;;;;3.60;92.26;100905.81;4978971;28;20038;-78
2020/12/16 03:34:07;;;;;;;32.85;14.05;;;;;;;3.36;92.32;100873.75;4978537;28;20487;-80
2020/12/16 03:36:34;;;;;;;32.78;15.43;;;;;;;3.55;92.29;100894.47;4962289;28;20033;-78
2020/12/16 03:38:59;;;;;;;32.42;15.38;;;;;;;3.44;92.50;100887.66;4978724;28;20391;-79
2020/12/16 03:41:25;;;;;;;34.35;15.32;;;;;;;3.41;92.96;100898.28;4979205;28;20030;-79
2020/12/16 03:43:50;;;;;;;34.28;15.20;;;;;;;3.42;92.75;100900.03;4978709;28;20038;-79
2020/12/16 03:46:16;;;;;;;32.63;14.63;;;;;;;3.51;92.56;100898.09;4978817;28;20057;-79
2020/12/16 03:48:43;;;;;;;34.25;15.00;;;;;;;3.55;92.34;100905.91;4978948;28;20141;-76
2020/12/16 03:51:10;;;;;;;34.60;14.25;;;;;;;3.55;92.61;100910.31;4996173;28;20450;-77
2020/12/16 03:53:37;;;;;;;30.98;14.48;;;;;;;3.27;92.54;100879.22;4978725;28;20399;-80
2020/12/16 03:56:07;;;;;;;32.75;14.05;;;;;;;3.55;92.68;100920.84;4962378;28;20054;-80
2020/12/16 03:58:33;;;;;;;35.40;14.48;;;;;;;3.33;92.79;100889.66;4996217;28;20049;-80
2020/12/16 04:01:04;;;;;;;33.63;14.65;;;;;;;3.44;92.95;100919.31;4978169;28;20480;-82
2020/12/16 04:03:29;;;;;;;35.22;15.10;;;;;;;3.42;93.49;100920.25;4996073;28;20041;-83
2020/12/16 04:05:54;;;;;;;34.63;14.30;;;;;;;3.18;93.32;100892.59;4978028;28;20034;-83
2020/12/16 04:08:20;;;;;;;33.88;14.75;;;;;;;3.32;93.74;100916.06;4978882;28;20125;-84
2020/12/16 04:10:45;;;;;;;36.40;15.77;;;;;;;3.50;93.73;100923.59;4978528;28;20113;-84
2020/12/16 04:13:14;;;;;;;32.80;14.18;;;;;;;3.51;93.67;100919.19;4995562;28;20030;-85
2020/12/16 04:15:40;;;;;;;34.08;14.18;;;;;;;3.58;93.20;100920.81;4978821;28;20030;-78
2020/12/16 04:18:06;;;;;;;31.00;13.60;;;;;;;3.52;93.23;100905.09;4977610;28;20038;-77
2020/12/16 04:20:31;;;;;;;35.17;14.77;;;;;;;3.56;93.34;100922.59;4995585;28;20162;-77
2020/12/16 04:22:57;;;;;;;33.75;13.82;;;;;;;3.48;93.30;100906.94;4961792;28;20542;-77
2020/12/16 04:25:22;;;;;;;32.15;14.55;;;;;;;3.62;93.35;100925.13;4995636;28;20096;-79
2020/12/16 04:27:47;;;;;;;36.45;15.35;;;;;;;3.62;93.15;100922.47;4978019;28;20034;-78
2020/12/16 04:30:13;;;;;;;32.58;15.15;;;;;;;3.58;93.27;100920.81;4977796;28;20049;-78
2020/12/16 04:32:38;;;;;;;34.65;14.40;;;;;;;3.55;93.61;100923.50;4977791;28;20038;-77
2020/12/16 04:35:03;;;;;;;32.80;14.68;;;;;;;3.36;92.88;100867.63;4977493;28;20041;-77
2020/12/16 04:37:29;;;;;;;33.38;15.30;;;;;;;3.58;93.52;100928.72;4995188;28;20042;-76
2020/12/16 04:39:54;;;;;;;32.15;14.85;;;;;;;3.53;93.50;100922.66;4994938;28;20109;-77
2020/12/16 04:42:19;;;;;;;31.27;15.25;;;;;;;3.41;93.99;100916.75;4961672;28;20030;-81
2020/12/16 04:44:45;;;;;;;34.95;15.50;;;;;;;3.45;93.77;100915.78;4995444;28;20034;-81
2020/12/16 04:47:11;;;;;;;34.20;15.02;;;;;;;3.42;93.79;100910.56;4993683;28;20034;-82
2020/12/16 04:49:37;;;;;;;33.45;15.57;;;;;;;3.60;93.60;100929.56;4995301;28;20093;-76
2020/12/16 04:52:04;;;;;;;33.15;15.25;;;;;;;3.64;93.37;100920.66;4994774;28;20391;-76
2020/12/16 04:54:29;;;;;;;36.20;14.82;;;;;;;3.44;93.61;100907.91;4961401;28;20069;-76
2020/12/16 04:56:58;;;;;;;37.97;16.85;;;;;;;3.31;94.02;100880.06;4994972;28;20399;-75
2020/12/16 04:59:24;;;;;;;36.97;15.43;;;;;;;3.39;93.97;100904.50;4994791;28;20030;-74
2020/12/16 05:01:49;;;;;;;33.22;16.33;;;;;;;3.41;94.13;100905.34;4977153;28;20038;-81
2020/12/16 05:04:14;;;;;;;34.08;15.75;;;;;;;3.60;94.15;100909.31;4994345;28;20093;-80
2020/12/16 05:06:42;;;;;;;33.88;14.73;;;;;;;3.69;93.61;100918.81;4977126;28;20042;-78
2020/12/16 05:09:16;;;;;;;31.45;14.70;;;;;;;3.65;93.26;100906.56;4994338;28;20026;-79
2020/12/16 05:11:50;;;;;;;34.45;15.38;;;;;;;3.63;93.18;100918.94;4994651;28;20125;-78
2020/12/16 05:14:16;;;;;;;34.78;15.15;;;;;;;3.62;93.76;100927.75;4994022;28;20387;-78
2020/12/16 05:16:53;;;;;;;32.13;14.45;;;;;;;3.65;93.78;100919.75;4977289;28;20109;-77
2020/12/16 05:19:38;;;;;;;27.27;13.13;;;;;;;3.62;93.75;100925.13;4994586;28;20038;-76
2020/12/16 05:22:15;;;;;;;29.13;13.50;;;;;;;3.56;94.28;100927.88;4976849;28;20042;-76
2020/12/16 05:24:41;;;;;;;25.58;11.02;;;;;;;3.68;93.85;100927.63;4994470;28;20117;-76
2020/12/16 05:27:08;;;;;;;24.25;11.93;;;;;;;3.65;93.71;100918.00;4994041;28;20030;-79
2020/12/16 05:29:34;;;;;;;30.77;13.23;;;;;;;3.57;93.81;100913.78;4994396;28;20093;-77
2020/12/16 05:32:14;;;;;;;25.02;11.40;;;;;;;3.74;93.14;100922.22;4993901;28;20066;-76
2020/12/16 05:34:39;;;;;;;23.45;11.77;;;;;;;3.67;93.39;100915.34;4994098;28;20092;-75
2020/12/16 05:37:21;;;;;;;23.65;11.10;;;;;;;3.73;93.23;100925.75;4993746;28;20047;-77
2020/12/16 05:40:05;;;;;;;21.70;10.35;;;;;;;3.77;93.02;100916.88;4994338;28;20117;-76
2020/12/16 05:42:31;;;;;;;26.35;11.70;;;;;;;3.72;93.22;100916.97;4994267;28;20041;-78
2020/12/16 05:45:07;;;;;;;22.60;11.60;;;;;;;3.69;93.16;100922.31;4993975;28;20034;-81
2020/12/16 05:47:32;;;;;;;26.75;12.48;;;;;;;3.72;92.87;100913.47;4993797;28;20383;-75
2020/12/16 05:49:58;;;;;;;26.55;13.00;;;;;;;3.67;93.21;100923.25;4993725;28;20038;-77
2020/12/16 05:52:23;;;;;;;27.02;12.50;;;;;;;3.44;93.03;100877.13;4994069;28;20057;-79
2020/12/16 05:54:50;;;;;;;27.17;13.13;;;;;;;3.72;93.08;100929.28;4993631;28;20050;-75
2020/12/16 05:57:20;;;;;;;24.88;12.75;;;;;;;3.51;93.14;100887.53;4993436;28;20529;-77
2020/12/16 06:00:08;;;;;;;26.92;11.85;;;;;;;3.65;93.54;100917.13;4993397;28;20026;-77
2020/12/16 06:02:39;;;;;;;22.27;11.68;;;;;;;3.67;93.30;100916.22;4993869;28;20026;-78
2020/12/16 06:05:07;;;;;;;27.85;12.68;;;;;;;3.39;93.52;100864.94;4976106;28;20458;-77
2020/12/16 06:07:37;;;;;;;25.50;12.88;;;;;;;3.73;93.31;100921.34;4993556;28;20034;-78
2020/12/16 06:10:03;;;;;;;27.25;11.98;;;;;;;3.73;93.37;100916.06;4993494;28;20388;-75
2020/12/16 06:12:28;;;;;;;24.58;11.45;;;;;;;3.70;93.24;100917.91;4959951;28;20037;-75
2020/12/16 06:15:06;;;;;;;25.92;12.15;;;;;;;3.57;93.52;100898.84;4993369;28;20062;-74
2020/12/16 06:17:40;;;;;;;23.40;11.65;;;;;;;3.72;93.45;100918.75;4993445;28;20043;-75
2020/12/16 06:20:08;;;;;;;26.85;12.02;;;;;;;3.71;93.62;100922.28;4993204;28;20026;-76
2020/12/16 06:22:35;;;;;;;25.42;12.40;;;;;;;3.80;93.19;100927.38;4993367;28;20038;-74
2020/12/16 06:25:06;;;;;;;24.38;11.02;;;;;;;3.78;93.03;100923.91;4992917;28;20035;-76
2020/12/16 06:27:42;;;;;;;24.08;11.52;;;;;;;3.83;92.38;100927.28;4976262;28;20061;-76
2020/12/16 06:30:13;;;;;;;23.00;11.50;;;;;;;3.86;92.16;100927.25;4975968;28;20030;-75
2020/12/16 06:32:42;;;;;;;23.17;10.18;;;;;;;3.76;92.48;100920.41;4993592;28;20042;-75
2020/12/16 06:35:15;;;;;;;38.53;17.70;;;;;;;3.49;92.98;100884.09;4992914;28;20109;-80
2020/12/16 06:37:40;;;;;;;40.53;17.08;;;;;;;3.67;92.24;100902.16;4993298;28;20109;-75
2020/12/16 06:40:06;;;;;;;22.42;9.90;;;;;;;3.85;92.14;100924.63;4993068;28;20118;-76
2020/12/16 06:42:32;;;;;;;20.40;9.63;;;;;;;3.78;92.10;100918.63;4993604;28;20137;-75
2020/12/16 06:45:15;;;;;;;21.13;10.15;;;;;;;3.75;92.34;100918.66;4976366;28;20035;-76
2020/12/16 06:47:42;;;;;;;23.05;10.13;;;;;;;3.61;92.54;100916.34;4993504;28;20038;-76
2020/12/16 06:50:19;;;;;;;25.45;11.07;;;;;;;3.50;92.82;100906.91;4976030;28;20042;-76
2020/12/16 06:52:44;;;;;;;24.45;10.88;;;;;;;3.73;92.78;100938.94;4960142;28;20034;-77
2020/12/16 06:55:10;;;;;;;26.33;12.18;;;;;;;3.43;93.66;100914.94;4992934;28;20506;-77
2020/12/16 06:57:47;;;;;;;27.45;11.68;;;;;;;3.56;93.34;100939.28;4976058;28;20065;-77
2020/12/16 07:00:23;;;;;;;24.23;11.05;;;;;;;3.66;93.19;100950.53;4975979;28;20045;-77
2020/12/16 07:02:51;;;;;;;26.73;12.02;;;;;;;3.45;93.22;100921.03;4993124;28;20050;-77
2020/12/16 07:05:37;;;;;;;26.05;11.52;;;;;;;3.61;92.67;100958.53;4993122;28;20034;-77
2020/12/16 07:08:04;;;;;;;26.45;12.20;;;;;;;3.68;92.93;100965.44;4992995;28;20092;-78
2020/12/16 07:10:36;;;;;;;29.13;12.13;;;;;;;3.81;92.27;100959.91;4993602;28;20113;-76
2020/12/16 07:13:19;;;;;;;25.90;11.85;;;;;;;3.84;91.85;100963.34;4979029;28;20491;-75
2020/12/16 07:16:00;;;;;;;27.58;11.73;;;;;;;3.59;91.91;100925.19;4996794;28;20026;-77
2020/12/16 07:18:28;;;;;;;30.73;13.07;;;;;;;3.67;92.62;100974.25;4996943;28;20155;-75
2020/12/16 07:21:16;;;;;;;27.77;13.18;;;;;;;3.63;92.63;100967.28;4996763;28;20038;-78
2020/12/16 07:23:52;;;;;;;41.05;18.08;;;;;;;3.44;92.90;100945.69;5002092;28;20026;-78
2020/12/16 07:26:19;;;;;;;33.90;13.90;;;;;;;3.58;92.70;100963.03;5002672;28;20047;-74
2020/12/16 07:28:45;;;;;;;26.05;12.10;;;;;;;3.53;92.69;100939.38;4997021;28;20057;-74
2020/12/16 07:31:11;;;;;;;30.38;13.18;;;;;;;3.61;92.54;100955.03;4996191;28;20030;-77
2020/12/16 07:33:37;;;;;;;33.65;14.02;;;;;;;3.63;92.89;100959.38;4996340;28;20388;-73
2020/12/16 07:36:03;;;;;;;30.70;13.05;;;;;;;3.71;92.48;100970.66;4996291;28;20061;-74
2020/12/16 07:38:28;;;;;;;26.88;13.13;;;;;;;3.54;92.61;100954.28;4979279;28;20030;-73
2020/12/16 07:40:55;;;;;;;29.38;12.93;;;;;;;3.51;92.73;100945.56;4996330;28;20038;-72
2020/12/16 07:43:23;;;;;;;28.95;13.75;;;;;;;3.68;92.95;100976.00;4978933;28;20132;-74
2020/12/16 07:46:08;;;;;;;30.13;13.48;;;;;;;3.68;93.24;100983.91;4996384;28;20073;-73
2020/12/16 07:48:36;;;;;;;32.80;12.60;;;;;;;3.67;92.79;100970.75;4996449;28;20034;-75
2020/12/16 07:51:08;;;;;;;28.58;12.63;;;;;;;3.41;93.17;100943.13;4996124;28;20047;-72
2020/12/16 07:53:35;;;;;;;26.15;12.93;;;;;;;3.74;92.22;100981.13;4978579;28;20550;-73
2020/12/16 07:56:02;;;;;;;27.38;12.90;;;;;;;3.78;92.03;100975.81;4995851;28;20050;-71
2020/12/16 07:58:32;;;;;;;29.08;13.70;;;;;;;3.71;92.49;100977.69;4995815;28;20041;-71
2020/12/16 08:01:09;;;;;;;27.83;13.30;;;;;;;3.81;92.42;100983.66;4995330;28;20084;-72
2020/12/16 08:03:36;;;;;;;32.35;13.27;;;;;;;3.75;92.78;100976.72;4996020;28;20396;-71
2020/12/16 08:06:02;;;;;;;32.78;14.93;;;;;;;3.52;92.90;100957.88;4996157;28;20036;-70
2020/12/16 08:08:28;;;;;;;33.80;14.18;;;;;;;3.70;92.73;100986.50;4995691;28;20038;-72
2020/12/16 08:10:53;;;;;;;33.95;13.75;;;;;;;3.61;92.77;100971.75;4995616;28;20038;-71
2020/12/16 08:13:27;;;;;;;31.38;14.55;;;;;;;3.50;92.73;100951.75;4978008;28;20085;-71
2020/12/16 08:15:52;;;;;;;;;;;;;;;3.66;93.17;100990.09;4996187;28;20038;-70
2020/12/16 08:18:18;;;;;;;31.83;13.52;;;;;;;3.62;93.32;100991.06;4995410;28;19918;-72
2020/12/16 08:20:44;;;;;;;32.25;13.73;;;;;;;3.70;92.82;100979.47;4995508;28;20069;-71
2020/12/16 08:23:13;;;;;;;26.95;13.02;;;;;;;3.67;92.71;100974.25;4995291;28;20041;-72
2020/12/16 08:25:40;;;;;;;29.35;13.13;;;;;;;3.64;92.62;100981.34;4995484;28;20104;-72
2020/12/16 08:28:06;;;;;;;31.95;14.00;;;;;;;3.82;92.42;100983.63;4995384;28;20379;-73
2020/12/16 08:30:32;;;;;;;31.75;13.85;;;;;;;3.78;92.25;100987.22;4995652;28;20031;-72
2020/12/16 08:33:08;;;;;;;32.83;14.90;;;;;;;3.74;92.40;100991.69;4995171;28;20042;-71
2020/12/16 08:35:38;;;;;;;35.38;15.25;;;;;;;3.68;92.81;100999.75;4995300;28;20030;-72
2020/12/16 08:38:06;;;;;;;37.40;14.68;;;;;;;3.75;92.77;100997.81;4995307;28;20034;-71
2020/12/16 08:40:40;;;;;;;34.30;14.32;;;;;;;3.74;92.83;101004.00;4977733;28;20370;-72
2020/12/16 08:43:15;;;;;;;33.50;13.20;;;;;;;3.78;92.23;101000.44;4977877;28;20129;-72
2020/12/16 08:45:42;;;;;;;37.70;15.43;;;;;;;3.65;92.34;100967.25;4995162;28;20081;-71
2020/12/16 08:48:07;;;;;;;35.92;13.90;;;;;;;3.86;91.67;101003.78;4977454;28;20042;-83
2020/12/16 08:50:32;;;;;;;36.78;15.30;;;;;;;3.80;91.71;100982.78;4994937;28;20450;-72
2020/12/16 08:53:00;;;;;;;31.08;15.50;;;;;;;3.74;92.11;100990.81;4994786;28;20040;-71
2020/12/16 08:55:25;;;;;;;35.90;15.15;;;;;;;3.50;92.47;100943.84;4994715;28;20046;-71
2020/12/16 08:57:55;;;;;;;36.20;15.20;;;;;;;3.87;91.74;101000.25;4994707;28;20510;-72
2020/12/16 09:00:29;;;;;;;34.90;14.88;;;;;;;3.82;92.03;100999.44;4994764;28;20080;-71
2020/12/16 09:03:06;;;;;;;32.65;15.10;;;;;;;3.84;92.17;101004.69;4994850;28;20030;-71
2020/12/16 09:05:34;;;;;;;34.60;14.75;;;;;;;3.71;91.58;100973.28;4994400;28;20034;-72
2020/12/16 09:08:08;;;;;;;37.60;15.63;;;;;;;3.77;91.86;100992.53;4994942;28;20092;-72
2020/12/16 09:10:35;;;;;;;32.22;14.00;;;;;;;3.87;91.95;101002.00;4994506;28;20022;-72
2020/12/16 09:13:29;;;;;;;31.10;14.23;;;;;;;3.84;91.25;100997.66;4977178;28;20071;-72
2020/12/16 09:15:54;;;;;;;27.50;13.02;;;;;;;3.81;91.40;100987.16;4992310;28;20038;-72
2020/12/16 09:18:27;;;;;;;31.30;13.40;;;;;;;3.79;91.69;101003.94;4994251;28;20038;-73
2020/12/16 09:20:53;;;;;;;;;;;;;;;3.78;92.08;101008.34;4977480;28;20057;-71
2020/12/16 09:23:36;;;;;;;31.83;12.77;;;;;;;3.84;91.68;100999.41;4994241;28;19918;-72
2020/12/16 09:26:02;;;;;;;28.58;12.07;;;;;;;3.76;91.46;100981.09;4977062;28;20027;-72
2020/12/16 09:28:39;;;;;;;29.45;13.10;;;;;;;3.85;91.35;101002.00;4976615;28;20542;-71
2020/12/16 09:31:19;;;;;;;29.35;13.93;;;;;;;3.75;91.09;100995.19;4994399;28;20037;-72
2020/12/16 09:33:58;;;;;;;34.40;14.75;;;;;;;3.73;91.14;100992.59;4993675;28;20081;-71
2020/12/16 09:36:28;;;;;;;34.67;15.38;;;;;;;3.89;91.41;101005.47;4993954;28;20034;-71
2020/12/16 09:39:18;;;;;;;30.40;15.23;;;;;;;3.83;91.55;100989.75;4994051;28;20030;-72
2020/12/16 09:41:46;;;;;;;35.08;14.73;;;;;;;3.77;91.51;100982.84;4993912;28;20034;-72
2020/12/16 09:44:30;;;;;;;66.05;25.08;;;;;;;3.80;90.86;101001.25;4993888;28;20030;-73
2020/12/16 09:47:09;;;;;;;;;;;;;;;3.85;90.88;100994.09;4994377;28;20105;-72
2020/12/16 09:49:34;;;;;;;36.33;15.32;;;;;;;3.88;91.22;100990.56;4993964;28;20064;-71
2020/12/16 09:52:00;;;;;;;35.42;15.93;;;;;;;3.91;90.97;100993.97;4993820;28;20120;-72
2020/12/16 09:54:32;;;;;;;37.88;15.85;;;;;;;3.62;90.53;100935.66;4993647;28;20514;-72
2020/12/16 09:57:09;;;;;;;36.17;16.05;;;;;;;3.97;91.03;100987.72;4976610;28;20388;-72
2020/12/16 09:59:36;;;;;;;36.15;15.73;;;;;;;3.99;90.69;100978.84;4993536;28;20109;-73
2020/12/16 10:02:03;;;;;;;42.47;16.02;;;;;;;3.91;90.92;100967.59;4993909;28;20026;-71
2020/12/16 10:04:28;;;;;;;33.67;14.70;;;;;;;3.97;90.94;100982.44;4993496;28;20053;-72
2020/12/16 10:06:53;;;;;;;35.30;15.40;;;;;;;3.88;90.21;100972.06;4993858;28;20030;-71
2020/12/16 10:09:19;;;;;;;36.63;15.20;;;;;;;3.66;89.86;100943.47;4993776;28;20050;-71
2020/12/16 10:11:48;;;;;;;34.70;15.20;;;;;;;3.60;90.43;100933.06;4994205;28;20046;-71
2020/12/16 10:14:17;;;;;;;35.17;15.55;;;;;;;3.88;90.49;100986.13;4993334;28;20071;-74
2020/12/16 10:16:47;;;;;;;37.08;15.77;;;;;;;3.81;90.35;100973.97;4993740;28;20038;-72
2020/12/16 10:19:19;;;;;;;38.08;15.27;;;;;;;3.83;90.63;100969.50;4976178;28;20053;-71
2020/12/16 10:21:48;;;;;;;38.08;15.32;;;;;;;3.90;90.84;100978.19;4993732;28;20135;-71
2020/12/16 10:24:16;;;;;;;39.53;16.08;;;;;;;3.92;90.62;100979.88;4993580;28;20467;-72
2020/12/16 10:26:45;;;;;;;36.05;15.20;;;;;;;3.89;90.54;100969.41;4976431;28;20037;-71
2020/12/16 10:29:10;;;;;;;34.85;15.23;;;;;;;4.00;90.57;100979.72;4993692;28;20057;-70
2020/12/16 10:31:36;;;;;;;34.85;15.05;;;;;;;3.80;90.33;100930.00;4993405;28;20039;-71
2020/12/16 10:34:01;;;;;;;35.15;16.38;;;;;;;3.88;90.60;100951.81;4993397;28;20035;-70
2020/12/16 10:36:29;;;;;;;33.17;15.00;;;;;;;4.05;90.17;100969.03;4975762;28;20046;-72
2020/12/16 10:38:55;;;;;;;34.63;15.77;;;;;;;3.92;89.76;100958.75;4993707;28;20035;-71
2020/12/16 10:41:20;;;;;;;37.10;16.17;;;;;;;4.05;89.57;100976.97;4992944;28;20039;-72
2020/12/16 10:43:45;;;;;;;35.90;17.05;;;;;;;3.98;89.71;100969.19;4993871;28;20035;-72
2020/12/16 10:46:11;;;;;;;37.08;17.08;;;;;;;3.98;89.70;100957.78;4995173;28;20062;-72
2020/12/16 10:48:36;;;;;;;34.90;15.88;;;;;;;3.76;89.67;100915.13;4996937;28;20042;-73
2020/12/16 10:51:02;;;;;;;35.97;15.82;;;;;;;3.99;89.44;100956.88;4997370;28;20042;-72
2020/12/16 10:53:28;;;;;;;32.58;14.93;;;;;;;4.05;88.78;100969.03;4997142;28;20456;-72
2020/12/16 10:55:55;;;;;;;33.35;16.88;;;;;;;4.02;88.33;100957.66;4996870;28;20054;-70
2020/12/16 10:58:21;;;;;;;32.42;15.23;;;;;;;3.89;88.66;100932.44;4997084;28;20066;-72
2020/12/16 11:00:46;;;;;;;33.65;15.15;;;;;;;4.08;88.52;100963.72;4997072;28;20085;-72
2020/12/16 11:03:11;;;;;;;31.27;14.18;;;;;;;4.12;88.20;100970.66;4997342;28;20038;-72
2020/12/16 11:05:37;;;;;;;19.33;10.07;;;;;;;4.26;83.75;100969.47;4996721;28;20038;-70
2020/12/16 11:08:02;;;;;;;22.98;11.18;;;;;;;4.23;84.64;100952.78;4979545;28;20058;-71
2020/12/16 11:10:28;;;;;;;23.05;11.93;;;;;;;4.25;83.99;100956.28;4996609;28;20443;-72
2020/12/16 11:12:53;;;;;;;25.45;12.02;;;;;;;4.13;84.20;100924.88;4997012;28;20090;-71
2020/12/16 11:15:18;;;;;;;25.35;11.90;;;;;;;4.22;85.44;100956.34;4996425;28;20113;-72
2020/12/16 11:17:44;;;;;;;22.10;11.05;;;;;;;4.38;84.00;100956.88;4979186;28;20058;-71
2020/12/16 11:20:09;;;;;;;29.13;13.52;;;;;;;4.30;84.13;100946.47;4996582;28;20043;-72
2020/12/16 11:22:37;;;;;;;31.92;14.55;;;;;;;4.03;85.20;100914.50;4978809;28;20038;-71
2020/12/16 11:25:05;;;;;;;34.42;15.55;;;;;;;4.12;84.09;100921.34;4996484;28;20039;-71